PWSweather.com
Personal Weather Stations
Station Observations

SkegnessGB

Lat: 53.147585, Lon: 0.345774

Elevation: 18

Station Type: Fine Offset WH3080

http://www.skegnessweather.info/

High Low Average
Temperature 57.4°F14.1°C 39.6°F4.2°C 45.4°F7.4°C
Dew Point 42.8°F6.0°C 34.2°F1.2°C 38.5°F3.6°C
Winds 16.6 mph 26.7 kmh 2.3 mph 3.7 kmh 6.0 mph SW9.7 kmh SW
Wind Gusts 19.2 mph30.9 kmh 3.4 mph5.5 kmh 8.0 mph12.9 kmh
Humidity 94% 57% 77%
Pressure 30.14 in1020.7 mb 29.71 in1006.1 mb -
Precipitation 0.01 in0.3 mm - -
Hour Temp Dew Point Humidity Winds Wind Gusts Pressure Precip Precip Rate Daily Precip Total
12:00 AM 39.6°F4.2°C 36.3°F2.4°C 88% 6.2 mph SW10.0 kmh SW 6.6 mph10.6 kmh 30.14 in1020.7 mb 0.01 in0.3 mm 0.00 in0.0 mm 0.01 in0.3 mm
12:10 AM 39.7°F4.3°C 36.8°F2.7°C 89% 6.7 mph SSW10.8 kmh SSW 9.1 mph14.6 kmh 30.13 in1020.3 mb 0.01 in0.3 mm 0.00 in0.0 mm 0.01 in0.3 mm
12:20 AM 39.7°F4.3°C 36.8°F2.7°C 89% 5.5 mph W8.9 kmh W 7.6 mph12.2 kmh 30.12 in1020.0 mb 0.01 in0.3 mm 0.00 in0.0 mm 0.01 in0.3 mm
12:30 AM 39.7°F4.3°C 37.0°F2.8°C 90% 4.9 mph SSW7.9 kmh SSW 7.6 mph12.2 kmh 30.12 in1020.0 mb 0.01 in0.3 mm 0.00 in0.0 mm 0.01 in0.3 mm
12:40 AM 39.9°F4.4°C 37.2°F2.9°C 90% 4.8 mph SE7.7 kmh SE 5.9 mph9.5 kmh 30.12 in1020.0 mb 0.00 in0.0 mm 0.00 in0.0 mm 0.01 in0.3 mm
12:50 AM 40.1°F4.5°C 37.7°F3.2°C 91% 3.8 mph S6.1 kmh S 4.9 mph7.9 kmh 30.11 in1019.6 mb 0.00 in0.0 mm 0.00 in0.0 mm 0.01 in0.3 mm
01:00 AM 40.1°F4.5°C 37.7°F3.2°C 91% 3.7 mph W6.0 kmh W 4.9 mph7.9 kmh 30.11 in1019.6 mb 0.00 in0.0 mm 0.00 in0.0 mm 0.01 in0.3 mm
01:10 AM 39.9°F4.4°C 37.8°F3.2°C 92% 3.1 mph NW5.0 kmh NW 4.2 mph6.8 kmh 30.11 in1019.6 mb 0.00 in0.0 mm 0.00 in0.0 mm 0.01 in0.3 mm
01:20 AM 40.1°F4.5°C 38.0°F3.3°C 92% 5.4 mph WSW8.7 kmh WSW 5.9 mph9.5 kmh 30.11 in1019.6 mb 0.00 in0.0 mm 0.00 in0.0 mm 0.01 in0.3 mm
01:30 AM 40.3°F4.6°C 38.1°F3.4°C 92% 5.0 mph SW8.0 kmh SW 7.6 mph12.2 kmh 30.11 in1019.6 mb 0.00 in0.0 mm 0.00 in0.0 mm 0.01 in0.3 mm
01:40 AM 40.5°F4.7°C 38.3°F3.5°C 92% 4.4 mph WSW7.1 kmh WSW 5.9 mph9.5 kmh 30.10 in1019.3 mb 0.00 in0.0 mm 0.00 in0.0 mm 0.01 in0.3 mm
01:50 AM 40.5°F4.7°C 38.3°F3.5°C 92% 3.8 mph S6.1 kmh S 4.9 mph7.9 kmh 30.10 in1019.3 mb 0.00 in0.0 mm 0.00 in0.0 mm 0.01 in0.3 mm
02:00 AM 40.5°F4.7°C 38.3°F3.5°C 92% 3.9 mph WSW6.3 kmh WSW 6.6 mph10.6 kmh 30.09 in1019.0 mb 0.00 in0.0 mm 0.00 in0.0 mm 0.01 in0.3 mm
02:10 AM 40.8°F4.9°C 39.0°F3.9°C 93% 5.3 mph SSW8.5 kmh SSW 6.6 mph10.6 kmh 30.09 in1019.0 mb 0.00 in0.0 mm 0.00 in0.0 mm 0.01 in0.3 mm
02:20 AM 40.8°F4.9°C 39.0°F3.9°C 93% 3.2 mph S5.1 kmh S 6.6 mph10.6 kmh 30.09 in1019.0 mb 0.00 in0.0 mm 0.00 in0.0 mm 0.01 in0.3 mm
02:30 AM 40.8°F4.9°C 39.0°F3.9°C 93% 5.0 mph WNW8.0 kmh WNW 4.9 mph7.9 kmh 30.09 in1019.0 mb 0.00 in0.0 mm 0.00 in0.0 mm 0.01 in0.3 mm
02:40 AM 40.8°F4.9°C 39.0°F3.9°C 93% 3.3 mph SSW5.3 kmh SSW 3.4 mph5.5 kmh 30.09 in1019.0 mb 0.00 in0.0 mm 0.00 in0.0 mm 0.01 in0.3 mm
02:50 AM 40.8°F4.9°C 39.0°F3.9°C 93% 3.2 mph SW5.1 kmh SW 4.2 mph6.8 kmh 30.09 in1019.0 mb 0.00 in0.0 mm 0.00 in0.0 mm 0.01 in0.3 mm
03:00 AM 40.8°F4.9°C 39.0°F3.9°C 93% 3.4 mph SW5.5 kmh SW 4.2 mph6.8 kmh 30.08 in1018.6 mb 0.00 in0.0 mm 0.00 in0.0 mm 0.01 in0.3 mm
03:10 AM 41.0°F5.0°C 39.1°F3.9°C 93% 5.0 mph WSW8.0 kmh WSW 4.9 mph7.9 kmh 30.08 in1018.6 mb 0.00 in0.0 mm 0.00 in0.0 mm 0.01 in0.3 mm
03:20 AM 41.4°F5.2°C 39.5°F4.2°C 93% 4.2 mph SW6.8 kmh SW 4.9 mph7.9 kmh 30.08 in1018.6 mb 0.00 in0.0 mm 0.00 in0.0 mm 0.01 in0.3 mm
03:30 AM 41.5°F5.3°C 39.7°F4.3°C 93% 3.1 mph WSW5.0 kmh WSW 4.9 mph7.9 kmh 30.08 in1018.6 mb 0.00 in0.0 mm 0.00 in0.0 mm 0.01 in0.3 mm
03:40 AM 42.1°F5.6°C 40.5°F4.7°C 94% 4.4 mph W7.1 kmh W 5.9 mph9.5 kmh 30.07 in1018.3 mb 0.00 in0.0 mm 0.00 in0.0 mm 0.01 in0.3 mm
03:50 AM 42.4°F5.8°C 40.8°F4.9°C 94% 4.5 mph SW7.2 kmh SW 5.9 mph9.5 kmh 30.08 in1018.6 mb 0.00 in0.0 mm 0.00 in0.0 mm 0.01 in0.3 mm
04:00 AM 42.6°F5.9°C 40.7°F4.8°C 93% 4.1 mph WSW6.6 kmh WSW 5.9 mph9.5 kmh 30.07 in1018.3 mb 0.00 in0.0 mm 0.00 in0.0 mm 0.01 in0.3 mm
04:10 AM 42.6°F5.9°C 40.7°F4.8°C 93% 2.9 mph S4.7 kmh S 4.2 mph6.8 kmh 30.07 in1018.3 mb 0.00 in0.0 mm 0.00 in0.0 mm 0.01 in0.3 mm
04:20 AM 43.0°F6.1°C 39.1°F3.9°C 86% 4.8 mph NW7.7 kmh NW 6.6 mph10.6 kmh 30.08 in1018.6 mb 0.00 in0.0 mm 0.00 in0.0 mm 0.01 in0.3 mm
04:30 AM 43.0°F6.1°C 39.1°F3.9°C 86% 3.3 mph SW5.3 kmh SW 7.6 mph12.2 kmh 30.08 in1018.6 mb 0.00 in0.0 mm 0.00 in0.0 mm 0.01 in0.3 mm
04:40 AM 42.8°F6.0°C 38.9°F3.8°C 86% 2.3 mph SW3.7 kmh SW 4.2 mph6.8 kmh 30.07 in1018.3 mb 0.00 in0.0 mm 0.00 in0.0 mm 0.01 in0.3 mm
04:50 AM 42.8°F6.0°C 38.9°F3.8°C 86% 2.9 mph SSW4.7 kmh SSW 4.2 mph6.8 kmh 30.07 in1018.3 mb 0.00 in0.0 mm 0.00 in0.0 mm 0.01 in0.3 mm
05:00 AM 42.8°F6.0°C 38.9°F3.8°C 86% 3.4 mph SW5.5 kmh SW 4.2 mph6.8 kmh 30.07 in1018.3 mb 0.00 in0.0 mm 0.00 in0.0 mm 0.01 in0.3 mm
05:10 AM 42.8°F6.0°C 38.9°F3.8°C 86% 3.3 mph NW5.3 kmh NW 4.2 mph6.8 kmh 30.07 in1018.3 mb 0.00 in0.0 mm 0.00 in0.0 mm 0.01 in0.3 mm
05:20 AM 42.8°F6.0°C 38.9°F3.8°C 86% 4.0 mph WSW6.4 kmh WSW 5.9 mph9.5 kmh 30.07 in1018.3 mb 0.00 in0.0 mm 0.00 in0.0 mm 0.01 in0.3 mm
05:30 AM 43.0°F6.1°C 39.1°F3.9°C 86% 3.1 mph SW5.0 kmh SW 4.2 mph6.8 kmh 30.07 in1018.3 mb 0.00 in0.0 mm 0.00 in0.0 mm 0.01 in0.3 mm
05:40 AM 43.0°F6.1°C 39.1°F3.9°C 86% 3.4 mph S5.5 kmh S 4.9 mph7.9 kmh 30.07 in1018.3 mb 0.00 in0.0 mm 0.00 in0.0 mm 0.01 in0.3 mm
05:50 AM 43.0°F6.1°C 38.8°F3.8°C 85% 3.1 mph SSW5.0 kmh SSW 5.9 mph9.5 kmh 30.07 in1018.3 mb 0.00 in0.0 mm 0.00 in0.0 mm 0.01 in0.3 mm
06:00 AM 43.0°F6.1°C 38.8°F3.8°C 85% 4.0 mph S6.4 kmh S 4.9 mph7.9 kmh 30.07 in1018.3 mb 0.00 in0.0 mm 0.00 in0.0 mm 0.01 in0.3 mm
06:10 AM 42.8°F6.0°C 38.6°F3.7°C 85% 3.5 mph S5.6 kmh S 4.9 mph7.9 kmh 30.07 in1018.3 mb 0.00 in0.0 mm 0.00 in0.0 mm 0.01 in0.3 mm
06:20 AM 42.8°F6.0°C 38.6°F3.7°C 85% 4.1 mph SSW6.6 kmh SSW 5.9 mph9.5 kmh 30.07 in1018.3 mb 0.00 in0.0 mm 0.00 in0.0 mm 0.01 in0.3 mm
06:30 AM 42.6°F5.9°C 40.2°F4.6°C 91% 3.8 mph WSW6.1 kmh WSW 7.6 mph12.2 kmh 30.06 in1017.9 mb 0.00 in0.0 mm 0.00 in0.0 mm 0.01 in0.3 mm
06:40 AM 42.3°F5.7°C 39.8°F4.3°C 91% 4.3 mph W6.9 kmh W 6.6 mph10.6 kmh 30.06 in1017.9 mb 0.00 in0.0 mm 0.00 in0.0 mm 0.01 in0.3 mm
06:50 AM 42.3°F5.7°C 39.8°F4.3°C 91% 4.0 mph SSW6.4 kmh SSW 5.9 mph9.5 kmh 30.06 in1017.9 mb 0.00 in0.0 mm 0.00 in0.0 mm 0.01 in0.3 mm
07:00 AM 42.1°F5.6°C 39.6°F4.2°C 91% 5.4 mph S8.7 kmh S 6.6 mph10.6 kmh 30.06 in1017.9 mb 0.00 in0.0 mm 0.00 in0.0 mm 0.01 in0.3 mm
07:10 AM 42.3°F5.7°C 40.1°F4.5°C 92% 4.3 mph WNW6.9 kmh WNW 10.1 mph16.3 kmh 30.06 in1017.9 mb 0.00 in0.0 mm 0.00 in0.0 mm 0.01 in0.3 mm
07:20 AM 42.4°F5.8°C 40.3°F4.6°C 92% 2.7 mph SW4.3 kmh SW 4.9 mph7.9 kmh 30.06 in1017.9 mb 0.00 in0.0 mm 0.00 in0.0 mm 0.01 in0.3 mm
07:30 AM 43.0°F6.1°C 38.8°F3.8°C 85% 4.5 mph S7.2 kmh S 4.9 mph7.9 kmh 30.06 in1017.9 mb 0.00 in0.0 mm 0.00 in0.0 mm 0.01 in0.3 mm
07:40 AM 43.2°F6.2°C 39.0°F3.9°C 85% 4.9 mph SSW7.9 kmh SSW 5.9 mph9.5 kmh 30.06 in1017.9 mb 0.00 in0.0 mm 0.00 in0.0 mm 0.01 in0.3 mm
07:50 AM 43.7°F6.5°C 39.2°F4.0°C 84% 4.3 mph S6.9 kmh S 8.4 mph13.5 kmh 30.07 in1018.3 mb 0.00 in0.0 mm 0.00 in0.0 mm 0.01 in0.3 mm
08:00 AM 44.1°F6.7°C 39.5°F4.2°C 84% 3.3 mph S5.3 kmh S 4.2 mph6.8 kmh 30.07 in1018.3 mb 0.00 in0.0 mm 0.00 in0.0 mm 0.01 in0.3 mm
08:10 AM 44.6°F7.0°C 40.1°F4.5°C 84% 4.1 mph NE6.6 kmh NE 7.6 mph12.2 kmh 30.06 in1017.9 mb 0.00 in0.0 mm 0.00 in0.0 mm 0.01 in0.3 mm
08:20 AM 44.8°F7.1°C 39.9°F4.4°C 83% 6.0 mph SE9.7 kmh SE 10.1 mph16.3 kmh 30.07 in1018.3 mb 0.00 in0.0 mm 0.00 in0.0 mm 0.01 in0.3 mm
08:30 AM 45.1°F7.3°C 40.0°F4.4°C 82% 5.6 mph N9.0 kmh N 10.1 mph16.3 kmh 30.06 in1017.9 mb 0.00 in0.0 mm 0.00 in0.0 mm 0.01 in0.3 mm
08:40 AM 45.7°F7.6°C 40.5°F4.7°C 82% 4.9 mph W7.9 kmh W 5.9 mph9.5 kmh 30.06 in1017.9 mb 0.00 in0.0 mm 0.00 in0.0 mm 0.01 in0.3 mm
08:50 AM 46.2°F7.9°C 40.7°F4.8°C 81% 5.1 mph WSW8.2 kmh WSW 6.6 mph10.6 kmh 30.06 in1017.9 mb 0.00 in0.0 mm 0.00 in0.0 mm 0.01 in0.3 mm
09:00 AM 46.4°F8.0°C 40.2°F4.6°C 79% 5.1 mph SW8.2 kmh SW 8.4 mph13.5 kmh 30.06 in1017.9 mb 0.00 in0.0 mm 0.00 in0.0 mm 0.01 in0.3 mm
09:10 AM 46.6°F8.1°C 40.1°F4.5°C 78% 4.3 mph S6.9 kmh S 4.9 mph7.9 kmh 30.06 in1017.9 mb 0.00 in0.0 mm 0.00 in0.0 mm 0.01 in0.3 mm
09:20 AM 46.8°F8.2°C 39.9°F4.4°C 77% 5.8 mph SSW9.3 kmh SSW 7.6 mph12.2 kmh 30.05 in1017.6 mb 0.00 in0.0 mm 0.00 in0.0 mm 0.01 in0.3 mm
09:30 AM 47.3°F8.5°C 40.1°F4.5°C 76% 7.2 mph S11.6 kmh S 9.1 mph14.6 kmh 30.05 in1017.6 mb 0.00 in0.0 mm 0.00 in0.0 mm 0.01 in0.3 mm
09:40 AM 48.0°F8.9°C 40.1°F4.5°C 74% 6.4 mph WNW10.3 kmh WNW 9.1 mph14.6 kmh 30.04 in1017.3 mb 0.00 in0.0 mm 0.00 in0.0 mm 0.01 in0.3 mm
09:50 AM 48.7°F9.3°C 40.8°F4.9°C 74% 6.9 mph SE11.1 kmh SE 10.8 mph17.4 kmh 30.05 in1017.6 mb 0.00 in0.0 mm 0.00 in0.0 mm 0.01 in0.3 mm
10:00 AM 49.5°F9.7°C 41.2°F5.1°C 73% 6.2 mph SW10.0 kmh SW 12.5 mph20.1 kmh 30.04 in1017.3 mb 0.00 in0.0 mm 0.00 in0.0 mm 0.01 in0.3 mm
10:10 AM 51.8°F11.0°C 40.8°F4.9°C 66% 6.7 mph SSE10.8 kmh SSE 10.8 mph17.4 kmh 30.03 in1016.9 mb 0.00 in0.0 mm 0.00 in0.0 mm 0.01 in0.3 mm
10:20 AM 51.6°F10.9°C 41.8°F5.4°C 69% 5.1 mph SSW8.2 kmh SSW 5.9 mph9.5 kmh 30.04 in1017.3 mb 0.00 in0.0 mm 0.00 in0.0 mm 0.01 in0.3 mm
10:30 AM 53.8°F12.1°C 41.9°F5.5°C 64% 5.8 mph SW9.3 kmh SW 8.4 mph13.5 kmh 30.03 in1016.9 mb 0.00 in0.0 mm 0.00 in0.0 mm 0.01 in0.3 mm
10:40 AM 55.2°F12.9°C 42.4°F5.8°C 62% 5.8 mph S9.3 kmh S 9.1 mph14.6 kmh 30.03 in1016.9 mb 0.00 in0.0 mm 0.00 in0.0 mm 0.01 in0.3 mm
10:50 AM 55.9°F13.3°C 42.2°F5.7°C 60% 4.3 mph S6.9 kmh S 6.6 mph10.6 kmh 30.02 in1016.6 mb 0.01 in0.3 mm 0.06 in1.5 mm 0.01 in0.3 mm
11:00 AM 56.5°F13.6°C 42.8°F6.0°C 60% 5.7 mph S9.2 kmh S 5.9 mph9.5 kmh 30.02 in1016.6 mb 0.01 in0.3 mm 0.00 in0.0 mm 0.01 in0.3 mm
11:10 AM 56.5°F13.6°C 42.8°F6.0°C 60% 6.8 mph W10.9 kmh W 4.9 mph7.9 kmh 30.02 in1016.6 mb 0.01 in0.3 mm 0.00 in0.0 mm 0.01 in0.3 mm
11:20 AM 57.0°F13.9°C 41.9°F5.5°C 57% 4.6 mph SW7.4 kmh SW 5.9 mph9.5 kmh 30.02 in1016.6 mb 0.01 in0.3 mm 0.00 in0.0 mm 0.01 in0.3 mm
11:30 AM 56.1°F13.4°C 41.1°F5.1°C 57% 6.1 mph SW9.8 kmh SW 7.6 mph12.2 kmh 30.02 in1016.6 mb 0.01 in0.3 mm 0.00 in0.0 mm 0.01 in0.3 mm
11:40 AM 56.7°F13.7°C 42.0°F5.6°C 58% 5.5 mph WSW8.9 kmh WSW 8.4 mph13.5 kmh 30.01 in1016.3 mb 0.01 in0.3 mm 0.00 in0.0 mm 0.01 in0.3 mm
11:50 AM 57.2°F14.0°C 42.5°F5.8°C 58% 4.8 mph SW7.7 kmh SW 6.6 mph10.6 kmh 30.00 in1015.9 mb 0.00 in0.0 mm 0.00 in0.0 mm 0.01 in0.3 mm
12:00 PM 57.4°F14.1°C 42.7°F5.9°C 58% 5.6 mph S9.0 kmh S 5.9 mph9.5 kmh 30.00 in1015.9 mb 0.00 in0.0 mm 0.00 in0.0 mm 0.01 in0.3 mm
12:10 PM 55.4°F13.0°C 40.9°F4.9°C 58% 5.8 mph W9.3 kmh W 6.6 mph10.6 kmh 30.00 in1015.9 mb 0.00 in0.0 mm 0.00 in0.0 mm 0.01 in0.3 mm
12:20 PM 55.6°F13.1°C 41.9°F5.5°C 60% 6.1 mph SW9.8 kmh SW 8.4 mph13.5 kmh 30.00 in1015.9 mb 0.00 in0.0 mm 0.00 in0.0 mm 0.01 in0.3 mm
12:30 PM 53.6°F12.0°C 40.9°F4.9°C 62% 6.3 mph SW10.1 kmh SW 8.4 mph13.5 kmh 30.00 in1015.9 mb 0.00 in0.0 mm 0.00 in0.0 mm 0.01 in0.3 mm
12:40 PM 52.9°F11.6°C 40.6°F4.8°C 63% 5.2 mph WSW8.4 kmh WSW 6.6 mph10.6 kmh 29.99 in1015.6 mb 0.00 in0.0 mm 0.00 in0.0 mm 0.01 in0.3 mm
12:50 PM 52.5°F11.4°C 40.3°F4.6°C 63% 5.5 mph SW8.9 kmh SW 7.6 mph12.2 kmh 29.99 in1015.6 mb 0.00 in0.0 mm 0.00 in0.0 mm 0.01 in0.3 mm
01:00 PM 52.5°F11.4°C 40.3°F4.6°C 63% 5.6 mph SW9.0 kmh SW 7.6 mph12.2 kmh 29.98 in1015.2 mb 0.00 in0.0 mm 0.00 in0.0 mm 0.01 in0.3 mm
01:10 PM 52.5°F11.4°C 40.7°F4.8°C 64% 5.1 mph SSE8.2 kmh SSE 5.9 mph9.5 kmh 29.98 in1015.2 mb 0.00 in0.0 mm 0.00 in0.0 mm 0.01 in0.3 mm
01:20 PM 52.5°F11.4°C 40.7°F4.8°C 64% 4.8 mph SSW7.7 kmh SSW 5.9 mph9.5 kmh 29.98 in1015.2 mb 0.00 in0.0 mm 0.00 in0.0 mm 0.01 in0.3 mm
01:30 PM 52.0°F11.1°C 40.2°F4.6°C 64% 7.1 mph SW11.4 kmh SW 10.1 mph16.3 kmh 29.98 in1015.2 mb 0.00 in0.0 mm 0.00 in0.0 mm 0.01 in0.3 mm
01:40 PM 51.4°F10.8°C 41.2°F5.1°C 68% 7.4 mph WSW11.9 kmh WSW 8.4 mph13.5 kmh 29.97 in1014.9 mb 0.00 in0.0 mm 0.00 in0.0 mm 0.01 in0.3 mm
01:50 PM 51.1°F10.6°C 41.3°F5.2°C 69% 6.1 mph WNW9.8 kmh WNW 5.9 mph9.5 kmh 29.97 in1014.9 mb 0.00 in0.0 mm 0.00 in0.0 mm 0.01 in0.3 mm
02:00 PM 50.5°F10.3°C 40.7°F4.8°C 69% 7.3 mph WSW11.7 kmh WSW 8.4 mph13.5 kmh 29.96 in1014.6 mb 0.00 in0.0 mm 0.00 in0.0 mm 0.01 in0.3 mm
02:10 PM 50.4°F10.2°C 40.9°F4.9°C 70% 6.7 mph WSW10.8 kmh WSW 10.1 mph16.3 kmh 29.96 in1014.6 mb 0.00 in0.0 mm 0.00 in0.0 mm 0.01 in0.3 mm
02:20 PM 50.0°F10.0°C 41.0°F5.0°C 71% 7.3 mph SW11.7 kmh SW 8.4 mph13.5 kmh 29.96 in1014.6 mb 0.00 in0.0 mm 0.00 in0.0 mm 0.01 in0.3 mm
02:30 PM 49.8°F9.9°C 40.8°F4.9°C 71% 8.2 mph SW13.2 kmh SW 12.5 mph20.1 kmh 29.96 in1014.6 mb 0.00 in0.0 mm 0.00 in0.0 mm 0.01 in0.3 mm
02:40 PM 49.3°F9.6°C 40.3°F4.6°C 71% 9.1 mph WSW14.6 kmh WSW 11.8 mph19.0 kmh 29.95 in1014.2 mb 0.00 in0.0 mm 0.00 in0.0 mm 0.01 in0.3 mm
02:50 PM 49.1°F9.5°C 40.1°F4.5°C 71% 9.4 mph S15.1 kmh S 10.8 mph17.4 kmh 29.95 in1014.2 mb 0.00 in0.0 mm 0.00 in0.0 mm 0.01 in0.3 mm
03:00 PM 48.7°F9.3°C 39.8°F4.3°C 71% 8.1 mph S13.0 kmh S 10.1 mph16.3 kmh 29.94 in1013.9 mb 0.00 in0.0 mm 0.00 in0.0 mm 0.01 in0.3 mm
03:10 PM 48.6°F9.2°C 39.2°F4.0°C 70% 7.6 mph SW12.2 kmh SW 10.1 mph16.3 kmh 29.94 in1013.9 mb 0.00 in0.0 mm 0.00 in0.0 mm 0.01 in0.3 mm
03:20 PM 48.2°F9.0°C 39.2°F4.0°C 71% 6.3 mph W10.1 kmh W 10.1 mph16.3 kmh 29.93 in1013.5 mb 0.00 in0.0 mm 0.00 in0.0 mm 0.01 in0.3 mm
03:30 PM 48.0°F8.9°C 38.7°F3.7°C 70% 7.7 mph SW12.4 kmh SW 7.6 mph12.2 kmh 29.94 in1013.9 mb 0.00 in0.0 mm 0.00 in0.0 mm 0.01 in0.3 mm
03:40 PM 47.8°F8.8°C 38.5°F3.6°C 70% 7.6 mph SSW12.2 kmh SSW 13.3 mph21.4 kmh 29.93 in1013.5 mb 0.00 in0.0 mm 0.00 in0.0 mm 0.01 in0.3 mm
03:50 PM 47.8°F8.8°C 38.9°F3.8°C 71% 6.7 mph SW10.8 kmh SW 10.1 mph16.3 kmh 29.93 in1013.5 mb 0.00 in0.0 mm 0.00 in0.0 mm 0.01 in0.3 mm
04:00 PM 47.5°F8.6°C 38.2°F3.4°C 70% 7.9 mph SW12.7 kmh SW 9.1 mph14.6 kmh 29.92 in1013.2 mb 0.00 in0.0 mm 0.00 in0.0 mm 0.01 in0.3 mm
04:10 PM 47.3°F8.5°C 38.4°F3.6°C 71% 7.0 mph SW11.3 kmh SW 8.4 mph13.5 kmh 29.92 in1013.2 mb 0.00 in0.0 mm 0.00 in0.0 mm 0.01 in0.3 mm
04:20 PM 46.9°F8.3°C 38.0°F3.3°C 71% 7.3 mph SSW11.7 kmh SSW 9.1 mph14.6 kmh 29.92 in1013.2 mb 0.00 in0.0 mm 0.00 in0.0 mm 0.01 in0.3 mm
04:30 PM 46.8°F8.2°C 37.9°F3.3°C 71% 7.8 mph SW12.6 kmh SW 9.1 mph14.6 kmh 29.92 in1013.2 mb 0.00 in0.0 mm 0.00 in0.0 mm 0.01 in0.3 mm
04:40 PM 46.6°F8.1°C 37.7°F3.2°C 71% 6.2 mph WSW10.0 kmh WSW 9.1 mph14.6 kmh 29.91 in1012.9 mb 0.00 in0.0 mm 0.00 in0.0 mm 0.01 in0.3 mm
04:50 PM 46.4°F8.0°C 37.5°F3.1°C 71% 7.3 mph WNW11.7 kmh WNW 10.8 mph17.4 kmh 29.91 in1012.9 mb 0.00 in0.0 mm 0.00 in0.0 mm 0.01 in0.3 mm
05:00 PM 46.4°F8.0°C 37.9°F3.3°C 72% 7.1 mph WSW11.4 kmh WSW 8.4 mph13.5 kmh 29.90 in1012.5 mb 0.00 in0.0 mm 0.00 in0.0 mm 0.01 in0.3 mm
05:10 PM 46.2°F7.9°C 37.7°F3.2°C 72% 6.1 mph SSW9.8 kmh SSW 9.1 mph14.6 kmh 29.90 in1012.5 mb 0.00 in0.0 mm 0.00 in0.0 mm 0.01 in0.3 mm
05:20 PM 46.2°F7.9°C 37.7°F3.2°C 72% 7.5 mph SW12.1 kmh SW 10.1 mph16.3 kmh 29.90 in1012.5 mb 0.00 in0.0 mm 0.00 in0.0 mm 0.01 in0.3 mm
05:30 PM 46.0°F7.8°C 37.5°F3.1°C 72% 7.7 mph SW12.4 kmh SW 10.1 mph16.3 kmh 29.89 in1012.2 mb 0.00 in0.0 mm 0.00 in0.0 mm 0.01 in0.3 mm
05:40 PM 45.9°F7.7°C 37.3°F2.9°C 72% 7.1 mph SSW11.4 kmh SSW 7.6 mph12.2 kmh 29.89 in1012.2 mb 0.00 in0.0 mm 0.00 in0.0 mm 0.01 in0.3 mm
05:50 PM 45.3°F7.4°C 36.8°F2.7°C 72% 6.3 mph S10.1 kmh S 6.6 mph10.6 kmh 29.88 in1011.9 mb 0.00 in0.0 mm 0.00 in0.0 mm 0.01 in0.3 mm
06:00 PM 44.8°F7.1°C 36.3°F2.4°C 72% 5.7 mph SW9.2 kmh SW 6.6 mph10.6 kmh 29.88 in1011.9 mb 0.00 in0.0 mm 0.00 in0.0 mm 0.01 in0.3 mm
06:10 PM 44.8°F7.1°C 36.7°F2.6°C 73% 6.0 mph S9.7 kmh S 6.6 mph10.6 kmh 29.88 in1011.9 mb 0.00 in0.0 mm 0.00 in0.0 mm 0.01 in0.3 mm
06:20 PM 44.8°F7.1°C 36.7°F2.6°C 73% 6.9 mph SW11.1 kmh SW 7.6 mph12.2 kmh 29.87 in1011.5 mb 0.00 in0.0 mm 0.00 in0.0 mm 0.01 in0.3 mm
06:30 PM 44.4°F6.9°C 36.6°F2.6°C 74% 7.8 mph SW12.6 kmh SW 6.6 mph10.6 kmh 29.87 in1011.5 mb 0.00 in0.0 mm 0.00 in0.0 mm 0.01 in0.3 mm
06:40 PM 44.2°F6.8°C 36.5°F2.5°C 74% 7.0 mph SW11.3 kmh SW 7.6 mph12.2 kmh 29.87 in1011.5 mb 0.00 in0.0 mm 0.00 in0.0 mm 0.01 in0.3 mm
06:50 PM 44.1°F6.7°C 36.3°F2.4°C 74% 6.7 mph S10.8 kmh S 7.6 mph12.2 kmh 29.86 in1011.2 mb 0.00 in0.0 mm 0.00 in0.0 mm 0.01 in0.3 mm
07:00 PM 44.1°F6.7°C 36.3°F2.4°C 74% 4.9 mph SSE7.9 kmh SSE 5.9 mph9.5 kmh 29.86 in1011.2 mb 0.00 in0.0 mm 0.00 in0.0 mm 0.01 in0.3 mm
07:10 PM 43.9°F6.6°C 36.1°F2.3°C 74% 5.3 mph SW8.5 kmh SW 4.2 mph6.8 kmh 29.86 in1011.2 mb 0.00 in0.0 mm 0.00 in0.0 mm 0.01 in0.3 mm
07:20 PM 43.7°F6.5°C 35.6°F2.0°C 73% 5.1 mph SW8.2 kmh SW 6.6 mph10.6 kmh 29.86 in1011.2 mb 0.00 in0.0 mm 0.00 in0.0 mm 0.01 in0.3 mm
07:30 PM 43.7°F6.5°C 35.6°F2.0°C 73% 4.2 mph WSW6.8 kmh WSW 4.2 mph6.8 kmh 29.85 in1010.8 mb 0.00 in0.0 mm 0.00 in0.0 mm 0.01 in0.3 mm
07:40 PM 43.7°F6.5°C 35.3°F1.8°C 72% 4.6 mph SW7.4 kmh SW 6.6 mph10.6 kmh 29.85 in1010.8 mb 0.00 in0.0 mm 0.00 in0.0 mm 0.01 in0.3 mm
07:50 PM 43.7°F6.5°C 35.3°F1.8°C 72% 4.9 mph S7.9 kmh S 8.4 mph13.5 kmh 29.85 in1010.8 mb 0.00 in0.0 mm 0.00 in0.0 mm 0.01 in0.3 mm
08:00 PM 43.5°F6.4°C 35.4°F1.9°C 73% 3.1 mph WNW5.0 kmh WNW 4.2 mph6.8 kmh 29.85 in1010.8 mb 0.00 in0.0 mm 0.00 in0.0 mm 0.01 in0.3 mm
08:10 PM 43.3°F6.3°C 35.3°F1.8°C 73% 5.5 mph S8.9 kmh S 6.6 mph10.6 kmh 29.85 in1010.8 mb 0.00 in0.0 mm 0.00 in0.0 mm 0.01 in0.3 mm
08:20 PM 43.3°F6.3°C 35.3°F1.8°C 73% 6.5 mph SW10.5 kmh SW 7.6 mph12.2 kmh 29.84 in1010.5 mb 0.00 in0.0 mm 0.00 in0.0 mm 0.01 in0.3 mm
08:30 PM 43.3°F6.3°C 35.3°F1.8°C 73% 6.4 mph WSW10.3 kmh WSW 12.5 mph20.1 kmh 29.84 in1010.5 mb 0.00 in0.0 mm 0.00 in0.0 mm 0.01 in0.3 mm
08:40 PM 43.0°F6.1°C 34.9°F1.6°C 73% 8.4 mph SSW13.5 kmh SSW 10.8 mph17.4 kmh 29.83 in1010.2 mb 0.00 in0.0 mm 0.00 in0.0 mm 0.01 in0.3 mm
08:50 PM 42.8°F6.0°C 35.1°F1.7°C 74% 7.9 mph SW12.7 kmh SW 10.1 mph16.3 kmh 29.83 in1010.2 mb 0.00 in0.0 mm 0.00 in0.0 mm 0.01 in0.3 mm
09:00 PM 42.6°F5.9°C 35.9°F2.2°C 77% 7.1 mph SSW11.4 kmh SSW 7.6 mph12.2 kmh 29.83 in1010.2 mb 0.00 in0.0 mm 0.00 in0.0 mm 0.01 in0.3 mm
09:10 PM 42.6°F5.9°C 35.6°F2.0°C 76% 5.7 mph W9.2 kmh W 6.6 mph10.6 kmh 29.82 in1009.8 mb 0.00 in0.0 mm 0.00 in0.0 mm 0.01 in0.3 mm
09:20 PM 42.6°F5.9°C 35.2°F1.8°C 75% 6.9 mph SW11.1 kmh SW 9.1 mph14.6 kmh 29.81 in1009.5 mb 0.00 in0.0 mm 0.00 in0.0 mm 0.01 in0.3 mm
09:30 PM 42.6°F5.9°C 34.9°F1.6°C 74% 8.0 mph SSW12.9 kmh SSW 10.1 mph16.3 kmh 29.81 in1009.5 mb 0.00 in0.0 mm 0.00 in0.0 mm 0.01 in0.3 mm
09:40 PM 42.4°F5.8°C 34.7°F1.5°C 74% 8.2 mph SW13.2 kmh SW 8.4 mph13.5 kmh 29.80 in1009.1 mb 0.00 in0.0 mm 0.00 in0.0 mm 0.01 in0.3 mm
09:50 PM 42.4°F5.8°C 34.7°F1.5°C 74% 7.6 mph W12.2 kmh W 10.1 mph16.3 kmh 29.80 in1009.1 mb 0.00 in0.0 mm 0.00 in0.0 mm 0.01 in0.3 mm
10:00 PM 42.3°F5.7°C 34.6°F1.4°C 74% 6.4 mph WSW10.3 kmh WSW 10.1 mph16.3 kmh 29.79 in1008.8 mb 0.00 in0.0 mm 0.00 in0.0 mm 0.01 in0.3 mm
10:10 PM 42.1°F5.6°C 34.7°F1.5°C 75% 6.0 mph SW9.7 kmh SW 6.6 mph10.6 kmh 29.79 in1008.8 mb 0.00 in0.0 mm 0.00 in0.0 mm 0.01 in0.3 mm
10:20 PM 41.9°F5.5°C 34.6°F1.4°C 75% 5.8 mph SW9.3 kmh SW 6.6 mph10.6 kmh 29.78 in1008.5 mb 0.00 in0.0 mm 0.00 in0.0 mm 0.01 in0.3 mm
10:30 PM 41.7°F5.4°C 34.7°F1.5°C 76% 7.5 mph SSE12.1 kmh SSE 9.1 mph14.6 kmh 29.77 in1008.1 mb 0.00 in0.0 mm 0.00 in0.0 mm 0.01 in0.3 mm
10:40 PM 41.5°F5.3°C 34.5°F1.4°C 76% 8.6 mph S13.8 kmh S 11.8 mph19.0 kmh 29.76 in1007.8 mb 0.00 in0.0 mm 0.00 in0.0 mm 0.01 in0.3 mm
10:50 PM 41.2°F5.1°C 34.5°F1.4°C 77% 12.1 mph SSE19.5 kmh SSE 11.8 mph19.0 kmh 29.75 in1007.5 mb 0.00 in0.0 mm 0.00 in0.0 mm 0.01 in0.3 mm
11:00 PM 41.0°F5.0°C 34.3°F1.3°C 77% 12.6 mph S20.3 kmh S 13.3 mph21.4 kmh 29.75 in1007.5 mb 0.00 in0.0 mm 0.00 in0.0 mm 0.01 in0.3 mm
11:10 PM 41.0°F5.0°C 34.3°F1.3°C 77% 9.2 mph S14.8 kmh S 11.8 mph19.0 kmh 29.73 in1006.8 mb 0.00 in0.0 mm 0.00 in0.0 mm 0.01 in0.3 mm
11:20 PM 40.8°F4.9°C 34.2°F1.2°C 77% 12.2 mph SSW19.6 kmh SSW 12.5 mph20.1 kmh 29.73 in1006.8 mb 0.00 in0.0 mm 0.00 in0.0 mm 0.01 in0.3 mm
11:30 PM 40.8°F4.9°C 34.5°F1.4°C 78% 10.9 mph S17.5 kmh S 13.3 mph21.4 kmh 29.73 in1006.8 mb 0.00 in0.0 mm 0.00 in0.0 mm 0.01 in0.3 mm
11:40 PM 41.0°F5.0°C 34.3°F1.3°C 77% 16.6 mph SSW26.7 kmh SSW 19.2 mph30.9 kmh 29.72 in1006.4 mb 0.00 in0.0 mm 0.00 in0.0 mm 0.01 in0.3 mm
11:50 PM 41.0°F5.0°C 34.3°F1.3°C 77% 15.2 mph S24.5 kmh S 16.7 mph26.9 kmh 29.71 in1006.1 mb 0.00 in0.0 mm 0.00 in0.0 mm 0.01 in0.3 mm